Time;durP1;ratioP1;P1;durP2;ratioP2;P2;SDS_P1;SDS_P2;PMS_P1;PMS_P2;Temp;Humidity;BMP_temperature;BMP_pressure;BME280_temperature;BME280_humidity;BME280_pressure;Samples;Min_cycle;Max_cycle;Signal;HPM_P1;HPM_P2
2021/07/05 00:00:17;;;;;;;1.17;0.90;;;13.60;99.90;;;;;;5082684;28;20681;-82
2021/07/05 00:02:43;;;;;;;2.07;1.27;;;13.60;99.90;;;;;;5078640;28;20181;-82
2021/07/05 00:05:11;;;;;;;1.87;1.37;;;13.60;99.90;;;;;;5079098;28;20207;-82
2021/07/05 00:07:38;;;;;;;1.60;1.03;;;13.60;99.90;;;;;;5078685;28;20181;-82
2021/07/05 00:10:06;;;;;;;1.50;1.10;;;13.60;99.90;;;;;;5078864;28;20205;-82
2021/07/05 00:12:32;;;;;;;2.60;1.57;;;13.50;99.90;;;;;;5078638;28;20176;-82
2021/07/05 00:14:58;;;;;;;1.40;1.30;;;13.50;99.90;;;;;;5079884;28;20272;-82
2021/07/05 00:17:23;;;;;;;2.07;1.70;;;13.50;99.90;;;;;;5079862;28;20208;-82
2021/07/05 00:19:49;;;;;;;2.20;1.37;;;13.50;99.90;;;;;;5078814;28;20564;-82
2021/07/05 00:22:15;;;;;;;3.10;1.60;;;13.50;99.90;;;;;;5078671;28;20209;-82
2021/07/05 00:24:41;;;;;;;3.27;1.30;;;13.50;99.90;;;;;;5080130;28;20184;-82
2021/07/05 00:27:07;;;;;;;2.73;1.70;;;13.50;99.90;;;;;;5080180;28;20185;-82
2021/07/05 00:29:32;;;;;;;2.43;1.60;;;13.50;99.90;;;;;;5079962;28;20193;-82
2021/07/05 00:31:58;;;;;;;1.60;1.43;;;13.50;99.90;;;;;;5079470;28;20685;-82
2021/07/05 00:34:24;;;;;;;2.63;1.30;;;13.50;99.90;;;;;;5082620;28;20177;-82
2021/07/05 00:36:49;;;;;;;1.60;1.50;;;13.60;99.90;;;;;;5077497;28;20177;-82
2021/07/05 00:39:15;;;;;;;1.40;1.30;;;13.60;99.90;;;;;;5077440;28;20193;-82
2021/07/05 00:41:41;;;;;;;1.20;1.10;;;13.60;99.90;;;;;;5075314;28;20275;-82
2021/07/05 00:44:07;;;;;;;2.87;1.30;;;13.60;99.90;;;;;;5075598;28;20216;-82
2021/07/05 00:46:32;;;;;;;1.40;1.30;;;13.50;99.90;;;;;;5085786;28;20169;-82
2021/07/05 00:48:58;;;;;;;1.13;1.03;;;13.60;99.90;;;;;;5080241;28;20196;-82
2021/07/05 00:51:25;;;;;;;1.10;1.00;;;13.50;99.90;;;;;;5078585;28;20227;-81
2021/07/05 00:53:51;;;;;;;3.87;1.33;;;13.50;99.90;;;;;;5077731;28;20258;-81
2021/07/05 00:56:17;;;;;;;1.97;1.23;;;13.50;99.90;;;;;;5081716;28;20200;-81
2021/07/05 00:58:44;;;;;;;1.17;0.93;;;13.50;99.90;;;;;;5080455;28;20193;-81
2021/07/05 01:01:09;;;;;;;1.70;1.20;;;13.50;99.90;;;;;;5081601;28;20191;-82
2021/07/05 01:03:35;;;;;;;3.57;1.10;;;13.50;99.90;;;;;;5078486;28;20185;-82
2021/07/05 01:06:01;;;;;;;2.93;1.40;;;13.40;99.90;;;;;;5077008;28;20185;-82
2021/07/05 01:08:27;;;;;;;1.53;1.30;;;13.30;99.90;;;;;;5078585;28;20193;-82
2021/07/05 01:10:53;;;;;;;4.70;1.10;;;13.30;99.90;;;;;;5077042;28;20350;-82
2021/07/05 01:13:19;;;;;;;1.40;1.30;;;13.30;99.90;;;;;;5077168;28;20177;-82
2021/07/05 01:15:45;;;;;;;3.30;1.20;;;13.30;99.90;;;;;;5077182;28;20183;-82
2021/07/05 01:18:11;;;;;;;1.50;1.40;;;13.20;99.90;;;;;;5076902;28;20180;-82
2021/07/05 01:20:38;;;;;;;1.57;1.47;;;13.30;99.90;;;;;;5077769;28;20181;-82
2021/07/05 01:23:07;;;;;;;1.90;1.27;;;13.30;99.90;;;;;;5077198;28;20211;-82
2021/07/05 01:25:33;;;;;;;5.83;1.40;;;13.30;99.90;;;;;;5077057;28;20188;-81
2021/07/05 01:28:00;;;;;;;1.60;1.40;;;13.30;99.90;;;;;;5077634;28;20234;-82
2021/07/05 01:30:27;;;;;;;1.43;1.20;;;13.30;99.90;;;;;;5076917;28;20213;-82
2021/07/05 01:32:58;;;;;;;1.63;1.20;;;13.30;99.90;;;;;;5078522;28;20193;-82
2021/07/05 01:35:24;;;;;;;1.30;1.20;;;13.40;99.90;;;;;;5077398;28;20688;-82
2021/07/05 01:37:51;;;;;;;1.60;1.40;;;13.40;99.90;;;;;;5077146;28;20185;-81
2021/07/05 01:40:18;;;;;;;1.30;1.20;;;13.40;99.90;;;;;;5076269;28;20219;-82
2021/07/05 01:42:50;;;;;;;1.50;1.20;;;13.40;99.90;;;;;;5079512;28;20185;-81
2021/07/05 01:45:17;;;;;;;1.33;1.10;;;13.40;99.90;;;;;;5081385;28;20180;-81
2021/07/05 01:47:43;;;;;;;1.40;1.27;;;13.50;99.90;;;;;;5077095;28;20187;-82
2021/07/05 01:50:09;;;;;;;1.20;1.10;;;13.50;99.90;;;;;;5076514;28;20209;-82
2021/07/05 01:52:35;;;;;;;1.30;1.20;;;13.50;99.90;;;;;;5077479;28;20185;-82
2021/07/05 01:55:00;;;;;;;2.70;1.10;;;13.50;99.90;;;;;;5079647;28;20181;-81
2021/07/05 01:57:26;;;;;;;1.47;1.20;;;13.50;99.90;;;;;;5078987;28;20206;-81
2021/07/05 01:59:57;;;;;;;1.40;1.30;;;13.50;99.90;;;;;;5078305;28;20556;-81
2021/07/05 02:02:24;;;;;;;1.47;1.37;;;13.50;99.90;;;;;;5078124;28;20251;-82
2021/07/05 02:04:51;;;;;;;1.10;1.00;;;13.50;99.90;;;;;;5078026;28;20264;-81
2021/07/05 02:07:18;;;;;;;6.07;1.20;;;13.60;99.90;;;;;;5078901;28;20622;-81
2021/07/05 02:09:44;;;;;;;1.13;1.07;;;13.50;99.90;;;;;;5080267;28;20231;-81
2021/07/05 02:12:11;;;;;;;1.60;1.20;;;13.60;99.90;;;;;;5078364;28;20638;-82
2021/07/05 02:14:38;;;;;;;1.73;1.17;;;13.50;99.90;;;;;;5076340;28;20181;-81
2021/07/05 02:17:05;;;;;;;1.40;1.00;;;13.60;99.90;;;;;;5076523;28;20585;-81
2021/07/05 02:19:31;;;;;;;2.00;0.90;;;13.60;99.90;;;;;;5075477;28;20197;-81
2021/07/05 02:21:57;;;;;;;3.20;1.23;;;13.60;99.90;;;;;;5076884;28;20180;-81
2021/07/05 02:24:22;;;;;;;1.00;0.90;;;13.60;99.90;;;;;;5075929;28;20612;-81
2021/07/05 02:26:48;;;;;;;3.37;1.30;;;13.60;99.90;;;;;;5076840;28;20711;-81
2021/07/05 02:29:14;;;;;;;1.40;1.07;;;13.60;99.90;;;;;;5076668;28;20274;-81
2021/07/05 02:31:40;;;;;;;1.30;0.87;;;13.60;99.90;;;;;;5075892;28;20235;-81
2021/07/05 02:34:05;;;;;;;1.00;0.90;;;13.70;99.90;;;;;;5077339;28;20229;-81
2021/07/05 02:36:31;;;;;;;1.10;1.00;;;13.70;99.90;;;;;;5077276;28;20180;-81
2021/07/05 02:38:57;;;;;;;2.57;1.10;;;13.70;99.90;;;;;;5075592;28;20283;-82
2021/07/05 02:41:23;;;;;;;1.83;0.80;;;13.70;99.90;;;;;;5076896;28;20200;-81
2021/07/05 02:43:49;;;;;;;2.57;1.20;;;13.70;99.90;;;;;;5075550;28;20192;-81
2021/07/05 02:46:14;;;;;;;1.10;1.00;;;13.70;99.90;;;;;;5075904;28;20188;-81
2021/07/05 02:48:41;;;;;;;3.00;1.20;;;13.80;99.90;;;;;;5076502;28;20662;-81
2021/07/05 02:51:08;;;;;;;2.70;0.80;;;13.80;99.90;;;;;;5075828;28;20196;-81
2021/07/05 02:53:36;;;;;;;1.20;1.00;;;13.80;99.90;;;;;;5075019;28;20177;-81
2021/07/05 02:56:03;;;;;;;1.17;1.00;;;13.90;99.90;;;;;;5074865;28;20267;-81
2021/07/05 02:58:29;;;;;;;2.37;1.40;;;13.80;99.90;;;;;;5075587;28;20276;-81
2021/07/05 03:00:58;;;;;;;2.13;1.10;;;13.90;99.90;;;;;;5078916;28;20234;-81
2021/07/05 03:03:25;;;;;;;2.77;1.10;;;13.90;99.90;;;;;;5087281;28;20195;-81
2021/07/05 03:05:51;;;;;;;1.43;0.90;;;13.80;99.90;;;;;;5084168;28;20173;-81
2021/07/05 03:08:17;;;;;;;1.00;0.90;;;13.80;99.90;;;;;;5080562;28;20185;-81
2021/07/05 03:10:44;;;;;;;1.90;0.90;;;13.90;99.90;;;;;;5080073;28;20208;-81
2021/07/05 03:13:12;;;;;;;1.07;1.00;;;13.80;99.90;;;;;;5080508;28;20559;-81
2021/07/05 03:15:38;;;;;;;2.40;1.10;;;13.80;99.90;;;;;;5080875;28;20173;-81
2021/07/05 03:18:04;;;;;;;4.33;1.20;;;13.70;99.90;;;;;;5079852;28;20177;-82
2021/07/05 03:20:32;;;;;;;2.83;1.10;;;13.70;99.90;;;;;;5080207;28;20231;-81
2021/07/05 03:23:00;;;;;;;2.20;1.00;;;13.70;99.90;;;;;;5080298;28;20260;-81
2021/07/05 03:25:28;;;;;;;1.20;1.10;;;13.70;99.90;;;;;;5080566;28;20183;-81
2021/07/05 03:27:54;;;;;;;2.27;1.30;;;13.70;99.90;;;;;;5079186;28;20677;-81
2021/07/05 03:30:22;;;;;;;3.67;1.53;;;13.70;99.90;;;;;;5080210;28;20291;-81
2021/07/05 03:32:49;;;;;;;1.40;1.20;;;13.60;99.90;;;;;;5078481;28;20542;-81
2021/07/05 03:35:16;;;;;;;2.03;1.50;;;13.70;99.90;;;;;;5080055;28;20615;-81
2021/07/05 03:37:42;;;;;;;1.20;1.10;;;13.60;99.90;;;;;;5079021;28;20177;-81
2021/07/05 03:40:11;;;;;;;6.33;1.30;;;13.60;99.90;;;;;;5078899;28;20693;-81
2021/07/05 03:42:37;;;;;;;2.00;1.33;;;13.60;99.90;;;;;;5080385;28;20204;-81
2021/07/05 03:45:06;;;;;;;1.90;1.47;;;13.60;99.90;;;;;;5080265;28;20181;-81
2021/07/05 03:47:32;;;;;;;3.20;1.37;;;13.60;99.90;;;;;;5078640;28;20187;-81
2021/07/05 03:49:57;;;;;;;3.60;1.30;;;13.60;99.90;;;;;;5079702;28;20565;-81
2021/07/05 03:52:23;;;;;;;2.67;0.90;;;13.60;99.90;;;;;;5083268;28;20173;-80
2021/07/05 03:54:49;;;;;;;1.20;1.10;;;13.60;99.90;;;;;;5079597;28;20223;-81
2021/07/05 03:57:25;;;;;;;2.17;1.13;;;13.50;99.90;;;;;;5079827;28;20574;-81
2021/07/05 03:59:56;;;;;;;1.67;1.27;;;13.40;99.90;;;;;;5079932;28;20197;-81
2021/07/05 04:02:22;;;;;;;2.53;1.20;;;13.50;99.90;;;;;;5078658;28;20181;-81
2021/07/05 04:04:48;;;;;;;0.90;0.90;;;13.40;99.90;;;;;;5078877;28;20260;-81
2021/07/05 04:07:15;;;;;;;1.20;1.00;;;13.40;99.90;;;;;;5079935;28;20185;-81
2021/07/05 04:09:41;;;;;;;1.53;1.20;;;13.40;99.90;;;;;;5079063;28;20686;-80
2021/07/05 04:12:08;;;;;;;2.13;1.10;;;13.40;99.90;;;;;;5078558;28;20169;-81
2021/07/05 04:14:34;;;;;;;3.07;1.20;;;13.40;99.90;;;;;;5079090;28;20181;-81
2021/07/05 04:17:00;;;;;;;1.20;1.10;;;13.40;99.90;;;;;;5078079;28;20207;-81
2021/07/05 04:19:26;;;;;;;1.30;1.20;;;13.40;99.90;;;;;;5077525;28;20741;-81
2021/07/05 04:21:51;;;;;;;2.50;1.43;;;13.40;99.90;;;;;;5078582;28;20183;-81
2021/07/05 04:24:17;;;;;;;2.27;1.10;;;13.50;99.90;;;;;;5077449;28;20271;-81
2021/07/05 04:26:43;;;;;;;4.50;1.10;;;13.50;99.90;;;;;;5079200;28;20172;-81
2021/07/05 04:29:09;;;;;;;1.50;1.07;;;13.50;99.90;;;;;;5077505;28;20247;-81
2021/07/05 04:31:34;;;;;;;1.10;1.00;;;13.50;99.90;;;;;;5076968;28;20258;-80
2021/07/05 04:34:00;;;;;;;0.97;0.87;;;13.50;99.90;;;;;;5078478;28;20262;-80
2021/07/05 04:36:26;;;;;;;1.10;0.83;;;13.50;99.90;;;;;;5077301;28;20539;-81
2021/07/05 04:38:51;;;;;;;1.30;1.17;;;13.50;99.90;;;;;;5078488;28;20665;-81
2021/07/05 04:41:17;;;;;;;1.03;0.90;;;13.60;99.90;;;;;;5077190;28;20187;-80
2021/07/05 04:43:43;;;;;;;2.20;0.90;;;13.60;99.90;;;;;;5078458;28;20226;-81
2021/07/05 04:46:09;;;;;;;1.20;1.10;;;13.60;99.90;;;;;;5078545;28;20183;-80
2021/07/05 04:48:35;;;;;;;1.10;1.00;;;13.70;99.90;;;;;;5076110;28;20244;-81
2021/07/05 04:51:03;;;;;;;1.33;1.10;;;13.80;99.90;;;;;;5077564;28;20200;-81
2021/07/05 04:53:29;;;;;;;2.77;1.27;;;13.80;99.90;;;;;;5077886;28;20230;-82
2021/07/05 04:55:58;;;;;;;1.60;1.00;;;13.90;99.90;;;;;;5076638;28;20181;-81
2021/07/05 04:58:23;;;;;;;2.33;1.70;;;14.00;99.90;;;;;;5077634;28;20200;-81
2021/07/05 05:00:49;;;;;;;1.90;1.50;;;14.10;99.90;;;;;;5076037;28;20274;-81
2021/07/05 05:03:14;;;;;;;1.10;1.00;;;14.10;99.90;;;;;;5077473;28;20176;-80
2021/07/05 05:05:41;;;;;;;1.10;1.00;;;14.20;99.90;;;;;;5075864;28;20189;-81
2021/07/05 05:08:08;;;;;;;0.80;0.80;;;14.20;99.90;;;;;;5077194;28;20165;-81
2021/07/05 05:10:35;;;;;;;0.90;0.87;;;14.20;99.90;;;;;;5075199;28;20299;-80
2021/07/05 05:13:01;;;;;;;2.00;0.90;;;14.30;99.90;;;;;;5076255;28;20177;-83
2021/07/05 05:15:27;;;;;;;1.00;0.90;;;14.40;99.90;;;;;;5076059;28;20215;-81
2021/07/05 05:17:53;;;;;;;1.13;0.90;;;14.50;99.90;;;;;;5076576;28;20578;-81
2021/07/05 05:20:20;;;;;;;1.30;0.90;;;14.60;99.90;;;;;;5074953;28;20288;-81
2021/07/05 05:22:46;;;;;;;2.90;1.00;;;14.80;99.90;;;;;;5076197;28;20216;-81
2021/07/05 05:25:13;;;;;;;3.47;1.40;;;15.00;99.90;;;;;;5071313;28;20208;-81
2021/07/05 05:27:39;;;;;;;3.07;1.17;;;15.10;99.90;;;;;;5079428;28;20570;-81
2021/07/05 05:30:07;;;;;;;2.33;0.80;;;15.20;99.90;;;;;;5074943;28;20208;-81
2021/07/05 05:32:33;;;;;;;0.80;0.77;;;15.30;99.90;;;;;;5077249;28;20177;-81
2021/07/05 05:34:59;;;;;;;0.87;0.73;;;15.30;99.90;;;;;;5076148;28;20854;-81
2021/07/05 05:37:25;;;;;;;3.07;0.90;;;15.50;99.90;;;;;;5074963;28;20202;-81
2021/07/05 05:39:50;;;;;;;1.80;0.80;;;15.50;99.90;;;;;;5076811;28;20204;-83
2021/07/05 05:42:16;;;;;;;1.83;0.80;;;15.60;99.90;;;;;;5075753;28;20184;-83
2021/07/05 05:44:44;;;;;;;1.93;0.63;;;15.70;99.90;;;;;;5076245;28;20184;-82
2021/07/05 05:47:11;;;;;;;1.83;0.90;;;15.80;99.90;;;;;;5076670;28;20180;-82
2021/07/05 05:49:37;;;;;;;1.30;0.73;;;15.80;99.90;;;;;;5076602;28;20201;-82
2021/07/05 05:52:03;;;;;;;3.00;1.00;;;15.80;99.90;;;;;;5077714;28;20197;-82
2021/07/05 05:54:29;;;;;;;3.50;1.03;;;15.90;99.90;;;;;;5077042;28;20283;-82
2021/07/05 05:56:55;;;;;;;3.37;1.10;;;15.90;99.90;;;;;;5079278;28;20619;-82
2021/07/05 05:59:20;;;;;;;1.93;1.10;;;16.00;99.90;;;;;;5078028;28;20558;-82
2021/07/05 06:01:50;;;;;;;0.87;0.80;;;16.00;99.90;;;;;;5077459;28;20188;-82
2021/07/05 06:04:17;;;;;;;2.53;1.20;;;16.10;99.90;;;;;;5076398;28;20184;-82
2021/07/05 06:06:43;;;;;;;1.60;0.80;;;16.10;99.90;;;;;;5075502;28;20184;-82
2021/07/05 06:09:08;;;;;;;1.37;1.00;;;16.10;99.90;;;;;;5075524;28;20219;-82
2021/07/05 06:11:36;;;;;;;2.33;0.97;;;16.20;99.90;;;;;;5075725;28;20295;-82
2021/07/05 06:14:02;;;;;;;1.57;1.10;;;16.20;99.90;;;;;;5076458;28;20607;-82
2021/07/05 06:16:28;;;;;;;2.43;0.80;;;16.20;99.90;;;;;;5077271;28;20242;-81
2021/07/05 06:18:53;;;;;;;0.90;0.80;;;16.30;99.90;;;;;;5075556;28;20197;-82
2021/07/05 06:21:20;;;;;;;1.20;0.80;;;16.40;99.90;;;;;;5076769;28;20635;-82
2021/07/05 06:23:46;;;;;;;2.40;0.90;;;16.50;99.90;;;;;;5077254;28;20238;-82
2021/07/05 06:26:12;;;;;;;1.93;0.97;;;16.60;99.90;;;;;;5075175;28;20651;-82
2021/07/05 06:28:40;;;;;;;1.10;0.83;;;16.60;99.90;;;;;;5077590;28;20208;-82
2021/07/05 06:31:05;;;;;;;1.57;1.07;;;16.60;99.90;;;;;;5075486;28;20287;-82
2021/07/05 06:33:31;;;;;;;2.80;0.80;;;16.70;99.90;;;;;;5075797;28;20216;-82
2021/07/05 06:35:57;;;;;;;0.83;0.83;;;16.80;99.90;;;;;;5081573;28;20199;-82
2021/07/05 06:38:23;;;;;;;0.90;0.70;;;16.90;99.90;;;;;;5080435;28;20197;-82
2021/07/05 06:40:51;;;;;;;1.93;1.07;;;17.10;99.90;;;;;;5079525;28;20204;-81
2021/07/05 06:43:18;;;;;;;1.40;0.70;;;17.10;99.90;;;;;;5080475;28;20172;-82
2021/07/05 06:45:43;;;;;;;1.33;0.77;;;17.20;99.90;;;;;;5082003;28;20618;-82
2021/07/05 06:48:09;;;;;;;1.17;1.00;;;17.40;99.90;;;;;;5080350;28;20255;-82
2021/07/05 06:50:36;;;;;;;2.63;0.93;;;17.50;99.90;;;;;;5080380;28;20197;-82
2021/07/05 06:53:02;;;;;;;2.60;1.00;;;17.60;99.90;;;;;;5080335;28;20172;-83
2021/07/05 06:55:28;;;;;;;1.23;0.90;;;17.70;99.90;;;;;;5081672;28;20233;-82
2021/07/05 06:57:55;;;;;;;3.33;1.00;;;17.70;99.90;;;;;;5080715;28;20674;-82
2021/07/05 07:00:23;;;;;;;1.07;0.80;;;17.80;99.90;;;;;;5080584;28;20205;-82
2021/07/05 07:02:49;;;;;;;1.20;0.90;;;17.90;99.90;;;;;;5080515;28;20184;-82
2021/07/05 07:05:16;;;;;;;0.87;0.83;;;18.00;99.90;;;;;;5080871;28;20177;-83
2021/07/05 07:07:45;;;;;;;1.23;1.10;;;18.00;99.90;;;;;;5086016;28;20161;-82
2021/07/05 07:10:12;;;;;;;0.80;0.80;;;18.00;99.90;;;;;;5080724;28;20694;-82
2021/07/05 07:12:39;;;;;;;2.07;1.00;;;18.00;99.90;;;;;;5077744;28;20639;-82
2021/07/05 07:15:09;;;;;;;2.00;0.80;;;18.10;99.90;;;;;;5077802;28;20625;-82
2021/07/05 07:17:39;;;;;;;2.07;0.97;;;18.10;99.90;;;;;;5077445;28;20165;-82
2021/07/05 07:20:07;;;;;;;1.03;0.90;;;18.20;99.90;;;;;;5078847;28;20647;-82
2021/07/05 07:22:33;;;;;;;1.27;0.87;;;18.30;99.90;;;;;;5077628;28;20176;-82
2021/07/05 07:24:59;;;;;;;1.10;0.90;;;18.30;99.90;;;;;;5078377;28;20176;-82
2021/07/05 07:27:24;;;;;;;0.90;0.90;;;18.40;99.90;;;;;;5077212;28;20193;-82
2021/07/05 07:29:50;;;;;;;1.00;0.80;;;18.40;99.90;;;;;;5076543;28;20231;-82
2021/07/05 07:32:16;;;;;;;2.07;1.30;;;18.50;99.90;;;;;;5077783;28;20200;-82
2021/07/05 07:34:41;;;;;;;0.77;0.77;;;18.60;99.90;;;;;;5082761;28;20172;-82
2021/07/05 07:37:08;;;;;;;0.80;0.80;;;18.60;99.90;;;;;;5085057;28;20545;-82
2021/07/05 07:39:42;;;;;;;1.37;1.07;;;18.70;99.90;;;;;;5079619;28;20193;-82
2021/07/05 07:42:08;;;;;;;1.83;1.20;;;18.70;99.90;;;;;;5079055;28;20208;-82
2021/07/05 07:44:34;;;;;;;0.90;0.90;;;18.70;99.90;;;;;;5080520;28;20178;-82
2021/07/05 07:47:01;;;;;;;2.20;1.00;;;18.80;99.90;;;;;;5079365;28;20181;-82
2021/07/05 07:49:27;;;;;;;0.90;0.90;;;18.90;99.90;;;;;;5079840;28;20204;-83
2021/07/05 07:51:53;;;;;;;4.03;2.07;;;18.90;99.90;;;;;;5082043;28;20267;-82
2021/07/05 07:54:19;;;;;;;1.00;0.90;;;18.90;99.90;;;;;;5079058;28;20198;-82
2021/07/05 07:56:45;;;;;;;1.27;1.10;;;19.00;99.90;;;;;;5077934;28;20183;-82
2021/07/05 07:59:11;;;;;;;3.03;0.90;;;19.00;99.90;;;;;;5078115;28;20249;-82
2021/07/05 08:01:36;;;;;;;1.03;0.70;;;19.00;99.90;;;;;;5077721;28;20640;-82
2021/07/05 08:04:02;;;;;;;0.87;0.83;;;19.10;99.90;;;;;;5078081;28;20181;-82
2021/07/05 08:06:27;;;;;;;1.00;0.90;;;19.20;99.90;;;;;;5078143;28;20176;-82
2021/07/05 08:08:55;;;;;;;0.97;0.97;;;19.20;99.90;;;;;;5078926;28;20196;-82
2021/07/05 08:11:21;;;;;;;1.20;0.83;;;19.10;99.90;;;;;;5077501;28;20205;-82
2021/07/05 08:13:47;;;;;;;1.10;1.00;;;19.10;99.90;;;;;;5077728;28;20241;-82
2021/07/05 08:16:12;;;;;;;2.07;1.40;;;19.20;99.90;;;;;;5079003;28;20197;-82
2021/07/05 08:18:38;;;;;;;1.83;1.20;;;19.30;99.90;;;;;;5077791;28;20198;-82
2021/07/05 08:21:04;;;;;;;2.23;0.90;;;19.30;99.90;;;;;;5076095;28;20192;-82
2021/07/05 08:23:31;;;;;;;1.97;0.90;;;19.20;99.90;;;;;;5075890;28;20211;-82
2021/07/05 08:25:57;;;;;;;1.00;0.90;;;19.20;99.90;;;;;;5077431;28;20186;-82
2021/07/05 08:28:27;;;;;;;2.03;1.00;;;19.30;99.90;;;;;;5077843;28;20216;-82
2021/07/05 08:30:54;;;;;;;2.70;0.90;;;19.40;99.90;;;;;;5077610;28;20580;-82
2021/07/05 08:33:20;;;;;;;1.00;0.70;;;19.50;99.90;;;;;;5077631;28;20542;-82
2021/07/05 08:35:46;;;;;;;1.33;0.90;;;19.60;99.90;;;;;;5080302;28;20182;-82
2021/07/05 08:38:11;;;;;;;0.83;0.77;;;19.60;99.90;;;;;;5077939;28;20183;-82
2021/07/05 08:40:37;;;;;;;1.23;1.07;;;19.50;99.90;;;;;;5078047;28;20180;-82
2021/07/05 08:43:03;;;;;;;0.80;0.80;;;19.50;99.90;;;;;;5077831;28;20209;-82
2021/07/05 08:45:29;;;;;;;1.27;0.80;;;19.50;99.90;;;;;;5078320;28;20186;-82
2021/07/05 08:47:56;;;;;;;1.47;1.33;;;19.50;99.90;;;;;;5078057;28;20179;-82
2021/07/05 08:50:24;;;;;;;0.90;0.90;;;19.50;99.90;;;;;;5079885;28;20208;-82
2021/07/05 08:52:50;;;;;;;3.17;1.20;;;19.60;99.90;;;;;;5081112;28;20276;-82
2021/07/05 08:55:19;;;;;;;1.00;0.90;;;19.60;99.90;;;;;;5080380;28;20205;-82
2021/07/05 08:57:45;;;;;;;2.43;1.30;;;19.60;99.90;;;;;;5076844;28;20166;-82
2021/07/05 09:00:31;;;;;;;1.53;1.10;;;19.60;99.90;;;;;;5075884;28;20269;-82
2021/07/05 09:03:00;;;;;;;1.20;1.10;;;19.70;99.90;;;;;;5077352;28;20645;-82
2021/07/05 09:05:26;;;;;;;0.90;0.80;;;19.70;99.90;;;;;;5078218;28;20557;-82
2021/07/05 09:08:05;;;;;;;2.90;1.20;;;19.60;99.90;;;;;;5076365;28;20183;-82
2021/07/05 09:10:52;;;;;;;2.63;1.17;;;19.70;99.90;;;;;;5076188;28;20197;-82
2021/07/05 09:13:23;;;;;;;2.23;1.60;;;19.80;99.90;;;;;;5075743;28;20178;-82
2021/07/05 09:15:54;;;;;;;3.17;1.03;;;19.90;99.90;;;;;;5075801;28;20181;-82
2021/07/05 09:18:33;;;;;;;1.60;1.33;;;20.00;99.90;;;;;;5077266;28;20189;-82
2021/07/05 09:21:21;;;;;;;1.87;1.57;;;20.00;99.90;;;;;;5075840;28;20229;-82
2021/07/05 09:23:50;;;;;;;1.30;1.20;;;20.00;99.90;;;;;;5075650;28;20180;-82
2021/07/05 09:26:21;;;;;;;1.20;1.07;;;20.00;99.90;;;;;;5076827;28;20177;-82
2021/07/05 09:28:49;;;;;;;3.37;1.23;;;19.90;99.90;;;;;;5076058;28;20208;-82
2021/07/05 09:31:26;;;;;;;3.43;1.20;;;19.80;99.90;;;;;;5076804;28;20196;-82
2021/07/05 09:33:52;;;;;;;1.50;1.20;;;19.80;99.90;;;;;;5075048;28;20162;-82
2021/07/05 09:36:23;;;;;;;1.97;1.30;;;19.90;99.90;;;;;;5074682;28;20182;-82
2021/07/05 09:38:49;;;;;;;1.73;1.23;;;20.00;99.90;;;;;;5074736;28;20587;-82
2021/07/05 09:41:33;;;;;;;1.53;1.33;;;20.00;99.90;;;;;;5075470;28;20173;-82
2021/07/05 09:44:10;;;;;;;1.20;1.10;;;20.00;99.90;;;;;;5084139;28;20172;-82
2021/07/05 09:46:41;;;;;;;2.30;0.93;;;19.90;99.90;;;;;;5076476;28;20264;-82
2021/07/05 09:49:15;;;;;;;2.20;1.30;;;19.90;99.90;;;;;;5077441;28;20200;-82
2021/07/05 09:51:46;;;;;;;1.00;1.00;;;19.90;99.90;;;;;;5075904;28;20212;-82
2021/07/05 09:54:17;;;;;;;1.43;1.10;;;19.90;99.90;;;;;;5075743;28;20201;-82
2021/07/05 09:56:43;;;;;;;1.53;1.03;;;20.00;99.90;;;;;;5075757;28;20177;-82
2021/07/05 09:59:20;;;;;;;1.30;1.10;;;20.10;99.90;;;;;;5075016;28;20196;-82
2021/07/05 10:01:48;;;;;;;1.33;1.00;;;20.10;99.90;;;;;;5076576;28;20641;-82
2021/07/05 10:04:32;;;;;;;1.90;1.17;;;20.20;99.90;;;;;;5075246;28;20179;-82
2021/07/05 10:07:03;;;;;;;1.07;0.90;;;20.40;99.90;;;;;;5075613;28;20304;-82
2021/07/05 10:09:39;;;;;;;1.47;1.03;;;20.70;99.90;;;;;;5074749;28;20203;-82
2021/07/05 10:12:29;;;;;;;1.30;1.10;;;20.80;99.90;;;;;;5076095;28;20188;-82
2021/07/05 10:15:06;;;;;;;3.23;1.00;;;20.80;99.90;;;;;;5075814;28;20168;-82
2021/07/05 10:17:34;;;;;;;2.87;0.90;;;20.70;99.90;;;;;;5075310;28;20183;-82
2021/07/05 10:20:03;;;;;;;1.57;1.17;;;20.50;99.90;;;;;;5075446;28;20201;-82
2021/07/05 10:22:29;;;;;;;1.13;1.03;;;20.50;99.90;;;;;;5075157;28;20533;-82
2021/07/05 10:24:55;;;;;;;0.70;0.70;;;20.40;99.90;;;;;;5075130;28;20183;-82
2021/07/05 10:27:21;;;;;;;0.70;0.67;;;20.20;99.90;;;;;;5075015;28;20219;-82
2021/07/05 10:29:48;;;;;;;1.00;0.90;;;20.10;99.90;;;;;;5076906;28;20185;-82
2021/07/05 10:32:16;;;;;;;1.23;1.00;;;20.00;99.90;;;;;;5094048;28;20245;-82
2021/07/05 10:34:42;;;;;;;1.23;1.00;;;20.00;99.90;;;;;;5096008;28;20687;-82
2021/07/05 10:37:14;;;;;;;2.03;1.30;;;20.00;99.90;;;;;;5096041;28;20171;-82
2021/07/05 10:39:41;;;;;;;2.13;1.07;;;19.90;99.90;;;;;;5096295;28;20650;-83
2021/07/05 10:42:26;;;;;;;2.67;1.00;;;20.00;99.90;;;;;;5097420;28;20297;-82
2021/07/05 10:44:52;;;;;;;1.20;1.10;;;20.10;99.90;;;;;;5098023;28;20172;-82
2021/07/05 10:47:44;;;;;;;1.07;0.97;;;20.10;99.90;;;;;;5097785;28;20183;-82
2021/07/05 10:50:37;;;;;;;1.80;1.20;;;20.20;99.90;;;;;;5097585;28;20190;-82
2021/07/05 10:53:04;;;;;;;3.00;1.20;;;20.30;99.90;;;;;;5096974;28;20669;-82
2021/07/05 10:55:45;;;;;;;1.70;1.13;;;20.30;99.90;;;;;;5087004;28;20172;-82
2021/07/05 10:58:25;;;;;;;1.07;1.07;;;20.20;99.90;;;;;;5075813;28;20183;-82
2021/07/05 11:00:54;;;;;;;2.70;1.00;;;20.20;99.90;;;;;;5075472;28;20177;-82
2021/07/05 11:03:49;;;;;;;1.33;1.00;;;20.20;99.90;;;;;;5077690;28;20195;-81
2021/07/05 11:06:14;;;;;;;1.57;1.03;;;20.10;99.90;;;;;;5072680;28;20218;-82
2021/07/05 11:08:48;;;;;;;1.87;1.00;;;20.20;99.90;;;;;;5078034;28;20731;-82
2021/07/05 11:11:19;;;;;;;1.43;1.00;;;20.20;99.90;;;;;;5078364;28;20272;-82
2021/07/05 11:13:46;;;;;;;1.03;0.90;;;20.30;99.90;;;;;;5077928;28;20176;-82
2021/07/05 11:16:13;;;;;;;1.00;0.87;;;20.30;99.90;;;;;;5075887;28;20176;-82
2021/07/05 11:18:39;;;;;;;1.83;0.90;;;20.20;99.90;;;;;;5078410;28;20274;-83
2021/07/05 11:21:43;;;;;;;2.30;0.90;;;20.10;99.90;;;;;;5079816;28;20199;-82
2021/07/05 11:24:12;;;;;;;0.90;0.90;;;20.00;99.90;;;;;;5081502;28;20174;-82
2021/07/05 11:26:40;;;;;;;0.80;0.80;;;20.00;99.90;;;;;;5083886;28;20247;-82
2021/07/05 11:29:19;;;;;;;0.90;0.80;;;20.00;99.90;;;;;;5081423;28;20210;-82
2021/07/05 11:31:48;;;;;;;0.70;0.70;;;20.00;99.90;;;;;;5079945;28;20204;-81
2021/07/05 11:34:28;;;;;;;1.00;0.90;;;20.00;99.90;;;;;;5079938;28;20536;-82
2021/07/05 11:37:12;;;;;;;2.60;1.00;;;20.10;99.90;;;;;;5080374;28;20644;-82
2021/07/05 11:39:47;;;;;;;1.00;0.90;;;20.10;99.90;;;;;;5080608;28;20193;-82
2021/07/05 11:42:39;;;;;;;1.20;0.90;;;20.10;99.90;;;;;;5080672;28;20182;-82
2021/07/05 11:45:06;;;;;;;1.00;0.90;;;20.10;99.90;;;;;;5077029;28;20197;-81
2021/07/05 11:47:41;;;;;;;2.50;1.00;;;20.10;99.90;;;;;;5085277;28;20177;-82
2021/07/05 11:50:24;;;;;;;1.27;1.17;;;20.20;99.90;;;;;;5077083;28;20220;-81
2021/07/05 11:53:01;;;;;;;1.10;0.90;;;20.30;99.90;;;;;;5082878;28;20216;-81
2021/07/05 11:55:30;;;;;;;1.30;1.07;;;20.30;99.90;;;;;;5082458;28;20180;-81
2021/07/05 11:58:09;;;;;;;1.87;0.90;;;20.30;99.90;;;;;;5080592;28;20657;-82
2021/07/05 12:00:36;;;;;;;2.10;1.10;;;20.40;99.90;;;;;;5079415;28;20268;-82
2021/07/05 12:03:11;;;;;;;0.63;0.57;;;20.40;99.90;;;;;;5079579;28;20180;-82
2021/07/05 12:05:40;;;;;;;1.00;0.60;;;20.50;99.90;;;;;;5079925;28;20546;-82
2021/07/05 12:08:08;;;;;;;2.10;0.80;;;20.70;99.90;;;;;;5080436;28;20175;-81
2021/07/05 12:10:37;;;;;;;1.10;0.90;;;20.80;99.90;;;;;;5079663;28;20246;-82
2021/07/05 12:13:24;;;;;;;0.70;0.70;;;20.80;99.90;;;;;;5080185;28;20167;-81
2021/07/05 12:16:00;;;;;;;0.97;0.80;;;20.60;99.90;;;;;;5078480;28;20172;-81
2021/07/05 12:18:26;;;;;;;2.17;0.90;;;20.50;99.90;;;;;;5079651;28;20195;-82
2021/07/05 12:20:57;;;;;;;1.30;0.90;;;20.40;99.90;;;;;;5078062;28;20177;-81
2021/07/05 12:23:31;;;;;;;0.70;0.70;;;20.30;99.90;;;;;;5077820;28;20181;-82
2021/07/05 12:26:09;;;;;;;1.37;1.00;;;20.20;99.90;;;;;;5078865;28;20190;-82
2021/07/05 12:28:35;;;;;;;1.70;0.70;;;20.10;99.90;;;;;;5078219;28;20273;-82
2021/07/05 12:31:00;;;;;;;0.70;0.70;;;20.10;99.90;;;;;;5079080;28;20202;-82
2021/07/05 12:33:27;;;;;;;0.80;0.80;;;20.10;99.90;;;;;;5077849;28;20215;-81
2021/07/05 12:35:58;;;;;;;1.77;0.80;;;20.00;99.90;;;;;;5080037;28;20168;-82
2021/07/05 12:38:26;;;;;;;1.97;1.20;;;20.00;99.90;;;;;;5078500;28;20195;-82
2021/07/05 12:40:52;;;;;;;1.10;1.00;;;19.90;99.90;;;;;;5078715;28;20195;-82
2021/07/05 12:43:17;;;;;;;0.97;0.87;;;19.90;99.90;;;;;;5080194;28;20175;-82
2021/07/05 12:45:55;;;;;;;1.20;1.03;;;19.90;99.90;;;;;;5080423;28;20655;-82
2021/07/05 12:48:22;;;;;;;1.23;1.00;;;19.90;99.90;;;;;;5078069;28;20181;-82
2021/07/05 12:50:55;;;;;;;1.03;0.90;;;19.80;99.90;;;;;;5077826;28;20263;-82
2021/07/05 12:53:22;;;;;;;1.43;1.00;;;19.80;99.90;;;;;;5079744;28;20248;-82